createdAt,value
2023-05-19T00:02:39.770Z,58.63
2023-05-19T00:07:46.222Z,58.82
2023-05-19T00:12:53.934Z,58.88
2023-05-19T00:17:59.368Z,58.92
2023-05-19T00:23:04.777Z,58.86
2023-05-19T00:28:10.080Z,59.19
2023-05-19T00:33:15.648Z,58.99
2023-05-19T00:38:21.062Z,59.19
2023-05-19T00:43:26.922Z,58.99
2023-05-19T00:48:32.243Z,59.37
2023-05-19T00:53:37.683Z,59.49
2023-05-19T00:58:43.674Z,59.58
2023-05-19T01:03:49.874Z,59.88
2023-05-19T01:08:57.463Z,60.10
2023-05-19T01:14:03.105Z,60.31
2023-05-19T01:19:26.512Z,60.36
2023-05-19T01:24:53.454Z,60.53
2023-05-19T01:30:19.294Z,60.65
2023-05-19T01:35:27.683Z,60.93
2023-05-19T01:40:34.591Z,61.24
2023-05-19T01:45:42.098Z,61.27
2023-05-19T01:50:47.768Z,61.47
2023-05-19T01:55:54.956Z,61.67
2023-05-19T02:01:08.257Z,61.84
2023-05-19T02:06:22.948Z,62.13
2023-05-19T02:11:36.975Z,62.44
2023-05-19T02:16:45.773Z,62.62
2023-05-19T02:21:51.286Z,62.90
2023-05-19T02:26:56.811Z,62.87
2023-05-19T02:32:02.317Z,63.21
2023-05-19T02:37:08.024Z,63.38
2023-05-19T02:42:14.867Z,63.69
2023-05-19T02:47:20.443Z,64.14
2023-05-19T02:52:25.819Z,64.50
2023-05-19T02:57:33.375Z,64.75
2023-05-19T03:02:39.743Z,64.86
2023-05-19T03:07:45.736Z,65.01
2023-05-19T03:12:51.155Z,65.17
2023-05-19T03:17:56.725Z,65.40
2023-05-19T03:23:02.533Z,65.40
2023-05-19T03:28:07.991Z,65.65
2023-05-19T03:33:13.497Z,65.67
2023-05-19T03:38:19.041Z,66.11
2023-05-19T03:43:24.678Z,66.20
2023-05-19T03:48:30.028Z,66.22
2023-05-19T03:53:35.624Z,66.62
2023-05-19T03:58:44.552Z,66.57
2023-05-19T04:03:50.069Z,66.72
2023-05-19T04:08:55.871Z,67.06
2023-05-19T04:14:01.467Z,67.01
2023-05-19T04:19:06.944Z,66.95
2023-05-19T04:24:12.488Z,66.00
2023-05-19T04:29:18.207Z,65.63
2023-05-19T04:34:24.425Z,65.69
2023-05-19T04:39:29.799Z,65.44
2023-05-19T04:44:35.150Z,65.74
2023-05-19T04:49:40.608Z,65.12
2023-05-19T04:54:46.188Z,64.71
2023-05-19T04:59:59.973Z,64.77
2023-05-19T05:05:08.034Z,64.00
2023-05-19T05:10:13.877Z,63.34
2023-05-19T05:15:22.138Z,62.64
2023-05-19T05:20:29.115Z,62.35
2023-05-19T05:25:36.426Z,62.56
2023-05-19T05:30:42.056Z,62.39
2023-05-19T05:35:47.531Z,62.10
2023-05-19T05:40:53.082Z,61.99
2023-05-19T05:45:58.736Z,61.91
2023-05-19T05:51:05.384Z,61.65
2023-05-19T05:56:13.742Z,62.03
2023-05-19T06:01:19.146Z,62.07
2023-05-19T06:06:24.523Z,62.22
2023-05-19T06:11:30.063Z,62.12
2023-05-19T06:16:35.780Z,61.65
2023-05-19T06:21:42.970Z,61.31
2023-05-19T06:26:48.642Z,61.06
2023-05-19T06:31:54.130Z,60.79
2023-05-19T06:36:59.639Z,60.56
2023-05-19T06:42:05.681Z,60.27
2023-05-19T06:47:11.036Z,59.96
2023-05-19T06:52:16.550Z,59.33
2023-05-19T06:57:21.864Z,59.26
2023-05-19T07:02:27.336Z,59.24
2023-05-19T07:07:32.702Z,58.55
2023-05-19T07:12:38.461Z,58.34
2023-05-19T07:17:43.973Z,58.35
2023-05-19T07:22:49.371Z,58.00
2023-05-19T07:27:54.646Z,57.42
2023-05-19T07:33:00.072Z,57.25
2023-05-19T07:38:07.481Z,57.58
2023-05-19T07:43:13.049Z,56.57
2023-05-19T07:48:18.885Z,56.34
2023-05-19T07:53:24.658Z,56.05
2023-05-19T07:58:30.053Z,55.49
2023-05-19T08:03:35.708Z,53.90
2023-05-19T08:08:42.191Z,53.33
2023-05-19T08:13:49.293Z,52.55
2023-05-19T08:18:55.313Z,52.33
2023-05-19T08:24:01.584Z,51.92
2023-05-19T08:29:06.914Z,51.38
2023-05-19T08:34:12.314Z,49.91
2023-05-19T08:39:21.374Z,50.30
2023-05-19T08:44:27.018Z,49.23
2023-05-19T08:49:38.937Z,47.20
2023-05-19T08:54:53.354Z,46.56
2023-05-19T08:59:59.390Z,46.98
2023-05-19T09:05:07.284Z,46.02
2023-05-19T09:10:14.957Z,44.81
2023-05-19T09:15:20.432Z,45.25
2023-05-19T09:20:26.020Z,45.50
2023-05-19T09:25:32.213Z,44.30
2023-05-19T09:30:38.140Z,43.73
2023-05-19T09:35:48.249Z,44.10
2023-05-19T09:40:57.141Z,43.20
2023-05-19T09:46:06.680Z,42.21
2023-05-19T09:51:12.378Z,41.61
2023-05-19T09:56:17.785Z,42.08
2023-05-19T10:01:23.710Z,41.65
2023-05-19T10:06:29.911Z,40.92
2023-05-19T10:11:35.925Z,39.96
2023-05-19T10:16:41.739Z,40.02
2023-05-19T10:21:47.632Z,40.15
2023-05-19T10:26:56.400Z,39.88
2023-05-19T10:32:06.792Z,39.28
2023-05-19T10:37:18.563Z,39.38
2023-05-19T10:42:36.615Z,39.71
2023-05-19T10:47:43.628Z,40.31
2023-05-19T10:52:55.965Z,39.82
2023-05-19T10:58:01.492Z,39.41
2023-05-19T11:03:16.242Z,39.02
2023-05-19T11:08:33.747Z,39.39
2023-05-19T11:13:40.918Z,38.86
2023-05-19T11:18:50.567Z,38.94
2023-05-19T11:23:58.113Z,38.70
2023-05-19T11:29:05.284Z,38.15
2023-05-19T11:34:10.993Z,38.30
2023-05-19T11:39:16.825Z,38.50
2023-05-19T11:44:22.218Z,38.37
2023-05-19T11:49:29.697Z,38.05
2023-05-19T11:54:36.815Z,37.41
2023-05-19T11:59:45.905Z,37.04
2023-05-19T12:04:52.519Z,36.69
2023-05-19T12:09:59.775Z,37.56
2023-05-19T12:15:07.709Z,37.17
2023-05-19T12:20:14.399Z,37.31
2023-05-19T12:25:20.286Z,36.75
2023-05-19T12:30:29.100Z,36.42
2023-05-19T12:35:37.501Z,36.46
2023-05-19T12:40:44.880Z,36.40
2023-05-19T12:45:50.624Z,36.62
2023-05-19T12:50:56.639Z,36.97
2023-05-19T12:56:01.994Z,36.66
2023-05-19T13:01:15.368Z,36.59
2023-05-19T13:06:21.979Z,37.37
2023-05-19T13:11:27.487Z,37.44
2023-05-19T13:16:33.153Z,37.52
2023-05-19T13:21:38.548Z,36.50
2023-05-19T13:26:43.935Z,36.72
2023-05-19T13:31:49.274Z,36.84
2023-05-19T13:36:54.906Z,37.18
2023-05-19T13:42:00.870Z,37.22
2023-05-19T13:47:06.557Z,37.52
2023-05-19T13:52:13.010Z,37.53
2023-05-19T13:57:18.548Z,37.29
2023-05-19T14:02:23.947Z,38.09
2023-05-19T14:07:30.204Z,38.17
2023-05-19T14:12:45.114Z,38.38
2023-05-19T14:17:59.115Z,38.71
2023-05-19T14:23:04.702Z,38.92
2023-05-19T14:28:11.132Z,39.21
2023-05-19T14:33:17.063Z,39.88
2023-05-19T14:38:22.590Z,40.24
2023-05-19T14:43:28.234Z,39.76
2023-05-19T14:48:33.674Z,39.82
2023-05-19T14:53:39.179Z,39.56
2023-05-19T14:58:44.504Z,39.49
2023-05-19T15:03:50.372Z,39.08
2023-05-19T15:08:55.715Z,38.49
2023-05-19T15:14:01.412Z,39.09
2023-05-19T15:19:06.855Z,38.90
2023-05-19T15:24:12.238Z,39.50
2023-05-19T15:29:17.916Z,39.61
2023-05-19T15:34:23.226Z,39.80
2023-05-19T15:39:29.642Z,40.07
2023-05-19T15:44:37.075Z,40.31
2023-05-19T15:49:43.200Z,39.77
2023-05-19T15:54:48.935Z,39.71
2023-05-19T15:59:54.325Z,40.11
2023-05-19T16:04:59.760Z,40.19
2023-05-19T16:10:06.208Z,40.45
2023-05-19T16:15:12.110Z,40.49
2023-05-19T16:20:17.689Z,40.39
2023-05-19T16:25:23.779Z,40.59
2023-05-19T16:30:29.302Z,40.79
2023-05-19T16:35:34.679Z,40.92
2023-05-19T16:40:40.172Z,41.07
2023-05-19T16:45:45.701Z,41.23
2023-05-19T16:50:51.868Z,41.34
2023-05-19T16:55:59.083Z,41.44
2023-05-19T17:01:05.070Z,41.84
2023-05-19T17:06:10.747Z,41.83
2023-05-19T17:11:16.131Z,42.10
2023-05-19T17:16:21.728Z,42.24
2023-05-19T17:21:27.161Z,42.41
2023-05-19T17:26:32.815Z,42.65
2023-05-19T17:31:38.178Z,42.85
2023-05-19T17:36:43.661Z,43.08
2023-05-19T17:41:48.990Z,43.43
2023-05-19T17:46:54.645Z,43.59
2023-05-19T17:52:01.022Z,43.72
2023-05-19T17:57:12.714Z,44.13
2023-05-19T18:02:18.639Z,44.19
2023-05-19T18:07:27.780Z,44.43
2023-05-19T18:12:33.184Z,44.56
2023-05-19T18:17:38.944Z,44.81
2023-05-19T18:22:44.269Z,44.97
2023-05-19T18:27:49.972Z,45.17
2023-05-19T18:32:55.581Z,45.33
2023-05-19T18:38:01.041Z,45.39
2023-05-19T18:43:06.705Z,45.62
2023-05-19T18:48:12.390Z,45.77
2023-05-19T18:53:17.780Z,46.18
2023-05-19T18:58:23.252Z,46.20
2023-05-19T19:03:28.812Z,46.45
2023-05-19T19:08:34.386Z,46.81
2023-05-19T19:13:39.870Z,46.96
2023-05-19T19:18:45.983Z,47.21
2023-05-19T19:23:52.305Z,47.68
2023-05-19T19:28:58.303Z,47.93
2023-05-19T19:34:09.010Z,48.22
2023-05-19T19:39:14.761Z,48.32
2023-05-19T19:44:22.904Z,48.84
2023-05-19T19:49:28.551Z,49.13
2023-05-19T19:54:33.870Z,49.38
2023-05-19T19:59:39.306Z,49.55
2023-05-19T20:04:44.656Z,50.04
2023-05-19T20:09:51.662Z,50.14
2023-05-19T20:14:57.485Z,50.53
2023-05-19T20:21:00.815Z,50.80
2023-05-19T20:26:20.713Z,51.43
2023-05-19T20:31:26.315Z,51.58
2023-05-19T20:36:32.042Z,51.86
2023-05-19T20:41:37.589Z,52.30
2023-05-19T20:46:43.054Z,52.55
2023-05-19T20:51:48.693Z,53.07
2023-05-19T20:56:54.170Z,53.12
2023-05-19T21:01:59.554Z,53.27
2023-05-19T21:07:05.208Z,53.70
2023-05-19T21:12:10.989Z,53.73
2023-05-19T21:17:16.410Z,54.19
2023-05-19T21:22:22.062Z,54.51
2023-05-19T21:27:27.962Z,54.86
2023-05-19T21:32:33.244Z,55.17
2023-05-19T21:37:38.582Z,55.46
2023-05-19T21:42:44.023Z,55.79
2023-05-19T21:47:49.395Z,55.93
2023-05-19T21:52:54.905Z,56.38
2023-05-19T21:58:01.693Z,56.49
2023-05-19T22:03:08.533Z,56.61
2023-05-19T22:08:14.470Z,56.96
2023-05-19T22:13:20.708Z,57.34
2023-05-19T22:18:26.250Z,57.37
2023-05-19T22:23:32.159Z,57.78
2023-05-19T22:28:37.566Z,58.12
2023-05-19T22:33:42.970Z,58.27
2023-05-19T22:38:48.296Z,58.56
2023-05-19T22:43:53.676Z,58.75
2023-05-19T22:48:59.018Z,58.83
2023-05-19T22:54:04.355Z,59.01
2023-05-19T22:59:09.721Z,59.15
2023-05-19T23:04:15.289Z,59.56
2023-05-19T23:09:21.917Z,59.91
2023-05-19T23:14:27.733Z,60.08
2023-05-19T23:19:35.045Z,60.46
2023-05-19T23:24:40.605Z,60.46
2023-05-19T23:29:49.401Z,60.83
2023-05-19T23:34:54.957Z,61.02
2023-05-19T23:40:00.462Z,61.33
2023-05-19T23:45:08.650Z,61.17
2023-05-19T23:50:14.160Z,61.46
2023-05-19T23:55:20.208Z,61.94
